Sao Domingos do Capim, Brazil
Current Conditions -  °F | °C
As of 6:00 AM on Sunday 23 Nov 2014 (Local Time) from SBBE Reporting Station
Clear Clear  
Wind Chill: 75°   Ceiling: Unl
Heat Index: 75°   Visibility: 6mi
Dew Point: 73°   Wind: 2mph
Humidity: 94%   Direction: 40°NE
Pressure: 29.83"   Gusts: NA
Location:  1.68°S, 47.78°W
Report Text: SBBE 230900Z 04002KT CAVOK 24/23 Q1010
Loading
Personal Weather Stations






























Interactive Weather Map New forecast layout! Learn more

10-Day Weather Forecast

Advertisements
Track Severe Weather on mobile